createdAt,value
2019-05-07T00:01:45.818Z,6.08
2019-05-07T00:04:15.871Z,6.04
2019-05-07T00:06:44.695Z,6.03
2019-05-07T00:09:13.574Z,5.97
2019-05-07T00:11:42.671Z,5.94
2019-05-07T00:14:12.598Z,5.91
2019-05-07T00:16:42.236Z,5.89
2019-05-07T00:19:09.552Z,5.87
2019-05-07T00:21:42.308Z,5.84
2019-05-07T00:24:09.891Z,5.79
2019-05-07T00:26:39.130Z,5.76
2019-05-07T00:29:07.948Z,5.71
2019-05-07T00:31:37.917Z,5.69
2019-05-07T00:34:07.368Z,5.67
2019-05-07T00:36:42.035Z,5.65
2019-05-07T00:39:13.087Z,5.63
2019-05-07T00:41:46.819Z,5.60
2019-05-07T00:44:15.766Z,5.59
2019-05-07T00:46:44.637Z,5.55
2019-05-07T00:49:13.433Z,5.52
2019-05-07T00:51:43.786Z,5.51
2019-05-07T00:54:12.604Z,5.47
2019-05-07T00:56:42.851Z,5.46
2019-05-07T00:59:10.285Z,5.44
2019-05-07T01:01:39.098Z,5.43
2019-05-07T01:04:07.888Z,5.43
2019-05-07T01:06:36.664Z,5.45
2019-05-07T01:09:05.985Z,5.49
2019-05-07T01:11:34.771Z,5.53
2019-05-07T01:14:03.583Z,5.57
2019-05-07T01:16:32.982Z,5.61
2019-05-07T01:19:01.907Z,5.65
2019-05-07T01:21:32.252Z,5.68
2019-05-07T01:23:58.922Z,5.72
2019-05-07T01:26:27.722Z,5.77
2019-05-07T01:28:59.627Z,5.81
2019-05-07T01:31:29.811Z,5.86
2019-05-07T01:34:02.807Z,5.91
2019-05-07T01:36:32.019Z,5.94
2019-05-07T01:39:02.538Z,6.00
2019-05-07T01:41:29.203Z,6.04
2019-05-07T01:43:58.045Z,6.09
2019-05-07T01:46:26.831Z,6.12
2019-05-07T01:48:57.470Z,6.17
2019-05-07T01:51:25.015Z,6.18
2019-05-07T01:53:53.784Z,6.21
2019-05-07T01:56:23.039Z,6.23
2019-05-07T01:58:52.799Z,6.25
2019-05-07T02:01:22.133Z,6.28
2019-05-07T02:03:59.828Z,6.30
2019-05-07T02:06:32.917Z,6.29
2019-05-07T02:09:06.643Z,6.27
2019-05-07T02:11:39.762Z,6.30
2019-05-07T02:14:08.655Z,6.33
2019-05-07T02:16:37.694Z,6.35
2019-05-07T02:19:06.539Z,6.34
2019-05-07T02:21:35.340Z,6.32
2019-05-07T02:24:04.144Z,6.31
2019-05-07T02:26:32.970Z,6.29
2019-05-07T02:29:02.745Z,6.31
2019-05-07T02:31:33.581Z,6.35
2019-05-07T02:34:02.550Z,6.38
2019-05-07T02:36:28.582Z,6.43
2019-05-07T02:39:12.885Z,6.47
2019-05-07T02:41:43.768Z,6.52
2019-05-07T02:44:13.373Z,6.54
2019-05-07T02:46:44.340Z,6.54
2019-05-07T02:49:17.363Z,6.57
2019-05-07T02:51:52.966Z,6.58
2019-05-07T02:54:25.051Z,6.61
2019-05-07T02:56:53.855Z,6.61
2019-05-07T02:59:23.574Z,6.62
2019-05-07T03:01:53.755Z,6.61
2019-05-07T03:04:20.335Z,6.59
2019-05-07T03:06:49.179Z,6.57
2019-05-07T03:09:19.030Z,6.53
2019-05-07T03:11:47.831Z,6.49
2019-05-07T03:14:16.623Z,6.43
2019-05-07T03:16:49.223Z,6.38
2019-05-07T03:19:14.289Z,6.33
2019-05-07T03:21:58.385Z,6.29
2019-05-07T03:24:34.298Z,6.25
2019-05-07T03:27:03.189Z,6.27
2019-05-07T03:29:33.015Z,6.18
2019-05-07T03:32:06.537Z,6.12
2019-05-07T03:34:38.965Z,6.10
2019-05-07T03:37:08.245Z,6.11
2019-05-07T03:39:37.043Z,6.14
2019-05-07T03:42:05.932Z,6.19
2019-05-07T03:44:44.535Z,6.22
2019-05-07T03:47:19.295Z,6.26
2019-05-07T03:49:48.215Z,6.31
2019-05-07T03:52:16.999Z,6.35
2019-05-07T03:54:45.846Z,6.41
2019-05-07T03:57:15.858Z,6.42
2019-05-07T03:59:45.287Z,6.44
2019-05-07T04:02:15.737Z,6.46
2019-05-07T04:04:44.523Z,6.49
2019-05-07T04:07:14.033Z,6.52
2019-05-07T04:09:43.788Z,6.57
2019-05-07T04:12:13.163Z,6.61
2019-05-07T04:14:43.298Z,6.68
2019-05-07T04:17:21.414Z,6.65
2019-05-07T04:19:40.050Z,6.61
2019-05-07T04:22:08.900Z,6.59
2019-05-07T04:24:44.951Z,6.59
2019-05-07T04:27:18.808Z,6.62
2019-05-07T04:29:47.612Z,6.68
2019-05-07T04:32:16.423Z,6.73
2019-05-07T04:34:52.955Z,6.79
2019-05-07T04:37:18.699Z,6.84
2019-05-07T04:39:53.781Z,6.90
2019-05-07T04:42:24.297Z,6.97
2019-05-07T04:44:53.746Z,7.02
2019-05-07T04:47:36.907Z,7.08
2019-05-07T04:49:48.349Z,7.10
2019-05-07T04:52:23.846Z,7.14
2019-05-07T04:54:52.777Z,7.17
2019-05-07T04:57:25.661Z,7.20
2019-05-07T04:59:55.805Z,7.24
2019-05-07T05:02:32.355Z,7.28
2019-05-07T05:04:58.776Z,7.32
2019-05-07T05:07:27.668Z,7.39
2019-05-07T05:09:56.481Z,7.43
2019-05-07T05:12:25.783Z,7.44
2019-05-07T05:14:54.641Z,7.43
2019-05-07T05:17:23.394Z,7.41
2019-05-07T05:19:52.592Z,7.39
2019-05-07T05:22:27.204Z,7.41
2019-05-07T05:25:02.525Z,7.49
2019-05-07T05:27:32.504Z,7.57
2019-05-07T05:29:59.851Z,7.62
2019-05-07T05:32:28.648Z,7.70
2019-05-07T05:34:57.536Z,7.79
2019-05-07T05:37:27.274Z,7.88
2019-05-07T05:40:06.306Z,7.97
2019-05-07T05:42:30.159Z,8.04
2019-05-07T05:44:58.991Z,8.12
2019-05-07T05:47:28.474Z,8.25
2019-05-07T05:49:57.282Z,8.29
2019-05-07T05:52:33.971Z,8.45
2019-05-07T05:55:12.040Z,8.54
2019-05-07T05:58:02.734Z,8.71
2019-05-07T06:00:36.804Z,8.83
2019-05-07T06:03:11.957Z,8.92
2019-05-07T06:05:45.968Z,8.98
2019-05-07T06:08:19.855Z,9.18
2019-05-07T06:10:52.847Z,9.35
2019-05-07T06:13:26.751Z,9.53
2019-05-07T06:16:12.570Z,9.71
2019-05-07T06:18:45.953Z,9.84
2019-05-07T06:21:24.131Z,10.03
2019-05-07T06:23:54.531Z,10.17
2019-05-07T06:26:24.009Z,10.38
2019-05-07T06:28:53.458Z,10.55
2019-05-07T06:31:22.314Z,10.73
2019-05-07T06:33:52.354Z,10.83
2019-05-07T06:36:22.043Z,10.71
2019-05-07T06:38:53.748Z,10.59
2019-05-07T06:41:26.753Z,10.48
2019-05-07T06:43:58.991Z,10.46
2019-05-07T06:46:29.219Z,10.48
2019-05-07T06:48:58.353Z,10.46
2019-05-07T06:51:27.158Z,10.63
2019-05-07T06:53:56.010Z,10.81
2019-05-07T06:56:25.055Z,10.91
2019-05-07T06:59:12.979Z,10.96
2019-05-07T07:02:05.339Z,10.87
2019-05-07T07:04:53.371Z,10.96
2019-05-07T07:07:33.986Z,11.00
2019-05-07T07:10:02.665Z,11.14
2019-05-07T07:12:32.967Z,11.42
2019-05-07T07:14:59.880Z,11.66
2019-05-07T07:17:28.704Z,11.90
2019-05-07T07:19:57.490Z,12.06
2019-05-07T07:22:26.295Z,12.05
2019-05-07T07:24:56.146Z,12.19
2019-05-07T07:27:24.963Z,12.31
2019-05-07T07:30:04.872Z,12.53
2019-05-07T07:32:36.240Z,12.61
2019-05-07T07:35:05.996Z,12.58
2019-05-07T07:37:37.920Z,12.54
2019-05-07T07:40:14.461Z,12.55
2019-05-07T07:42:43.355Z,12.41
2019-05-07T07:45:16.542Z,12.21
2019-05-07T07:47:45.640Z,12.08
2019-05-07T07:50:14.521Z,12.28
2019-05-07T07:52:43.547Z,12.52
2019-05-07T07:55:13.670Z,12.63
2019-05-07T07:57:49.238Z,12.58
2019-05-07T08:00:23.627Z,12.43
2019-05-07T08:03:02.246Z,12.64
2019-05-07T08:05:32.435Z,12.87
2019-05-07T08:07:59.179Z,13.08
2019-05-07T08:10:28.303Z,13.22
2019-05-07T08:12:58.593Z,13.27
2019-05-07T08:15:27.411Z,13.35
2019-05-07T08:17:56.239Z,13.24
2019-05-07T08:20:25.107Z,13.51
2019-05-07T08:22:55.317Z,13.91
2019-05-07T08:25:28.387Z,14.23
2019-05-07T08:27:58.261Z,14.48
2019-05-07T08:30:27.701Z,14.69
2019-05-07T08:33:02.243Z,14.90
2019-05-07T08:35:35.037Z,15.03
2019-05-07T08:38:03.914Z,15.27
2019-05-07T08:40:33.010Z,15.41
2019-05-07T08:43:03.229Z,15.37
2019-05-07T08:45:36.255Z,15.46
2019-05-07T08:48:08.292Z,15.53
2019-05-07T08:50:37.091Z,15.71
2019-05-07T08:53:05.924Z,15.86
2019-05-07T08:55:34.834Z,15.94
2019-05-07T08:58:04.341Z,15.99
2019-05-07T09:00:33.843Z,16.05
2019-05-07T09:03:03.939Z,16.23
2019-05-07T09:05:32.751Z,16.46
2019-05-07T09:08:02.230Z,16.66
2019-05-07T09:10:32.477Z,16.61
2019-05-07T09:12:59.333Z,16.68
2019-05-07T09:15:28.177Z,16.89
2019-05-07T09:17:56.974Z,17.03
2019-05-07T09:20:25.782Z,17.13
2019-05-07T09:22:54.605Z,17.34
2019-05-07T09:25:23.413Z,17.58
2019-05-07T09:27:53.515Z,17.79
2019-05-07T09:30:28.590Z,17.94
2019-05-07T09:33:02.317Z,18.26
2019-05-07T09:35:33.695Z,18.47
2019-05-07T09:38:03.167Z,18.46
2019-05-07T09:40:32.038Z,18.38
2019-05-07T09:43:02.526Z,18.56
2019-05-07T09:45:29.806Z,18.75
2019-05-07T09:47:58.625Z,18.78
2019-05-07T09:50:27.447Z,18.73
2019-05-07T09:52:56.270Z,18.66
2019-05-07T09:55:25.100Z,18.43
2019-05-07T09:57:53.910Z,18.21
2019-05-07T10:00:22.778Z,18.05
2019-05-07T10:02:52.843Z,17.91
2019-05-07T10:05:20.422Z,17.67
2019-05-07T10:07:49.944Z,17.57
2019-05-07T10:10:18.784Z,17.48
2019-05-07T10:12:53.910Z,17.39
2019-05-07T10:15:22.687Z,17.24
2019-05-07T10:17:55.191Z,17.18
2019-05-07T10:20:24.001Z,17.14
2019-05-07T10:22:52.903Z,16.96
2019-05-07T10:25:22.425Z,16.65
2019-05-07T10:27:50.539Z,16.32
2019-05-07T10:30:21.708Z,16.13
2019-05-07T10:32:48.200Z,15.99
2019-05-07T10:35:17.003Z,15.73
2019-05-07T10:37:45.795Z,15.55
2019-05-07T10:40:15.199Z,15.46
2019-05-07T10:42:44.007Z,15.38
2019-05-07T10:45:17.968Z,15.41
2019-05-07T10:47:52.894Z,15.48
2019-05-07T10:50:35.494Z,15.68
2019-05-07T10:52:52.997Z,16.01
2019-05-07T10:55:22.245Z,16.29
2019-05-07T10:57:52.611Z,16.90
2019-05-07T11:00:22.468Z,17.18
2019-05-07T11:02:51.839Z,17.37
2019-05-07T11:05:21.893Z,17.59
2019-05-07T11:07:49.009Z,17.92
2019-05-07T11:10:17.814Z,17.67
2019-05-07T11:12:46.613Z,17.87
2019-05-07T11:15:15.422Z,18.07
2019-05-07T11:17:51.988Z,18.03
2019-05-07T11:20:18.784Z,17.84
2019-05-07T11:22:47.647Z,17.59
2019-05-07T11:25:16.491Z,17.25
2019-05-07T11:27:46.067Z,17.30
2019-05-07T11:30:14.879Z,17.11
2019-05-07T11:32:43.686Z,16.80
2019-05-07T11:35:14.742Z,16.67
2019-05-07T11:37:44.097Z,16.43
2019-05-07T11:40:10.177Z,16.51
2019-05-07T11:42:45.152Z,16.83
2019-05-07T11:45:17.154Z,16.96
2019-05-07T11:47:45.970Z,16.80
2019-05-07T11:50:45.163Z,16.98
2019-05-07T11:53:14.674Z,17.09
2019-05-07T11:55:43.486Z,17.10
2019-05-07T11:58:13.194Z,17.29
2019-05-07T12:00:45.941Z,17.47
2019-05-07T12:03:15.404Z,17.48
2019-05-07T12:05:44.200Z,17.49
2019-05-07T12:08:13.307Z,17.28
2019-05-07T12:10:41.808Z,17.24
2019-05-07T12:13:12.267Z,17.33
2019-05-07T12:15:39.439Z,17.32
2019-05-07T12:18:08.298Z,17.34
2019-05-07T12:20:37.784Z,17.41
2019-05-07T12:23:06.596Z,17.32
2019-05-07T12:25:35.410Z,17.26
2019-05-07T12:28:05.419Z,17.31
2019-05-07T12:30:42.864Z,17.11
2019-05-07T12:33:21.527Z,17.08
2019-05-07T12:35:52.434Z,17.22
2019-05-07T12:38:21.912Z,17.32
2019-05-07T12:40:52.252Z,17.41
2019-05-07T12:43:18.886Z,17.60
2019-05-07T12:45:47.685Z,17.65
2019-05-07T12:48:16.482Z,17.63
2019-05-07T12:50:45.948Z,17.46
2019-05-07T12:53:19.565Z,17.34
2019-05-07T12:55:52.872Z,17.24
2019-05-07T12:58:21.879Z,17.24
2019-05-07T13:00:54.364Z,17.25
2019-05-07T13:03:34.272Z,17.33
2019-05-07T13:06:03.216Z,17.35
2019-05-07T13:08:32.954Z,17.36
2019-05-07T13:11:02.818Z,17.38
2019-05-07T13:13:31.838Z,17.49
2019-05-07T13:15:58.422Z,17.52
2019-05-07T13:18:27.241Z,17.53
2019-05-07T13:20:56.188Z,17.57
2019-05-07T13:23:24.958Z,17.66
2019-05-07T13:25:53.822Z,17.64
2019-05-07T13:28:22.627Z,17.63
2019-05-07T13:30:52.655Z,17.54
2019-05-07T13:33:20.288Z,17.52
2019-05-07T13:35:49.096Z,17.43
2019-05-07T13:38:23.992Z,17.36
2019-05-07T13:41:02.196Z,17.31
2019-05-07T13:43:33.007Z,17.23
2019-05-07T13:46:06.142Z,17.07
2019-05-07T13:48:38.000Z,17.00
2019-05-07T13:51:06.976Z,16.96
2019-05-07T13:53:35.753Z,16.85
2019-05-07T13:56:04.565Z,16.80
2019-05-07T13:58:33.363Z,16.80
2019-05-07T14:01:13.444Z,16.80
2019-05-07T14:03:42.335Z,16.80
2019-05-07T14:06:21.751Z,16.58
2019-05-07T14:08:51.845Z,16.48
2019-05-07T14:11:22.363Z,16.43
2019-05-07T14:13:49.403Z,16.33
2019-05-07T14:16:22.275Z,16.23
2019-05-07T14:18:50.192Z,16.07
2019-05-07T14:21:19.348Z,15.68
2019-05-07T14:23:48.726Z,15.61
2019-05-07T14:26:17.559Z,15.53
2019-05-07T14:28:46.415Z,15.46
2019-05-07T14:31:15.297Z,15.34
2019-05-07T14:33:53.928Z,15.32
2019-05-07T14:36:23.538Z,15.28
2019-05-07T14:38:52.371Z,15.29
2019-05-07T14:41:25.265Z,15.37
2019-05-07T14:43:55.018Z,15.43
2019-05-07T14:46:23.836Z,15.34
2019-05-07T14:48:54.133Z,15.14
2019-05-07T14:51:23.019Z,15.29
2019-05-07T14:53:51.860Z,15.42
2019-05-07T14:56:23.147Z,15.63
2019-05-07T14:58:51.583Z,15.79
2019-05-07T15:01:18.691Z,15.86
2019-05-07T15:03:47.568Z,15.94
2019-05-07T15:06:16.420Z,16.03
2019-05-07T15:08:45.532Z,16.11
2019-05-07T15:11:14.362Z,16.22
2019-05-07T15:13:43.187Z,16.29
2019-05-07T15:16:12.661Z,16.26
2019-05-07T15:18:49.136Z,16.29
2019-05-07T15:21:17.975Z,16.25
2019-05-07T15:23:47.316Z,16.11
2019-05-07T15:26:16.110Z,15.99
2019-05-07T15:28:56.435Z,15.99
2019-05-07T15:31:29.453Z,16.00
2019-05-07T15:33:58.345Z,15.89
2019-05-07T15:36:27.158Z,15.94
2019-05-07T15:38:58.141Z,16.14
2019-05-07T15:41:29.159Z,16.44
2019-05-07T15:44:02.671Z,16.63
2019-05-07T15:46:32.055Z,16.77
2019-05-07T15:48:58.694Z,16.88
2019-05-07T15:51:28.298Z,16.91
2019-05-07T15:53:59.347Z,16.95
2019-05-07T15:56:28.188Z,16.93
2019-05-07T15:58:57.041Z,16.95
2019-05-07T16:01:25.831Z,16.94
2019-05-07T16:03:55.322Z,16.95
2019-05-07T16:06:24.120Z,16.99
2019-05-07T16:08:54.746Z,17.01
2019-05-07T16:11:23.537Z,17.13
2019-05-07T16:13:57.606Z,17.24
2019-05-07T16:16:26.395Z,17.38
2019-05-07T16:19:03.959Z,17.50
2019-05-07T16:21:32.795Z,17.59
2019-05-07T16:24:03.890Z,17.64
2019-05-07T16:26:32.563Z,17.47
2019-05-07T16:29:04.306Z,17.23
2019-05-07T16:31:28.948Z,17.15
2019-05-07T16:33:57.805Z,17.04
2019-05-07T16:36:26.679Z,16.85
2019-05-07T16:38:56.107Z,16.71
2019-05-07T16:41:24.911Z,16.62
2019-05-07T16:43:53.735Z,16.53
2019-05-07T16:46:23.499Z,16.40
2019-05-07T16:48:53.535Z,16.30
2019-05-07T16:51:22.458Z,16.18
2019-05-07T16:53:52.408Z,15.92
2019-05-07T16:56:20.008Z,15.76
2019-05-07T16:58:52.438Z,15.66
2019-05-07T17:01:22.240Z,15.49
2019-05-07T17:03:52.999Z,15.41
2019-05-07T17:06:24.803Z,15.31
2019-05-07T17:09:04.904Z,15.23
2019-05-07T17:11:33.751Z,15.12
2019-05-07T17:14:02.577Z,15.03
2019-05-07T17:16:31.845Z,14.94
2019-05-07T17:19:02.349Z,14.86
2019-05-07T17:21:29.079Z,14.80
2019-05-07T17:23:57.859Z,14.75
2019-05-07T17:26:26.756Z,14.70
2019-05-07T17:28:55.579Z,14.67
2019-05-07T17:31:24.362Z,14.64
2019-05-07T17:33:53.207Z,14.62
2019-05-07T17:36:22.487Z,14.60
2019-05-07T17:38:51.985Z,14.59
2019-05-07T17:41:23.883Z,14.60
2019-05-07T17:43:48.506Z,14.58
2019-05-07T17:46:17.328Z,14.58
2019-05-07T17:48:46.142Z,14.57
2019-05-07T17:51:45.589Z,14.53
2019-05-07T17:54:14.412Z,14.43
2019-05-07T17:56:43.502Z,14.42
2019-05-07T17:59:12.466Z,14.43
2019-05-07T18:01:46.201Z,14.33
2019-05-07T18:04:15.004Z,14.37
2019-05-07T18:06:43.836Z,14.39
2019-05-07T18:09:12.658Z,14.33
2019-05-07T18:11:42.893Z,14.23
2019-05-07T18:14:10.361Z,14.12
2019-05-07T18:17:18.596Z,14.05
2019-05-07T18:19:49.116Z,13.96
2019-05-07T18:22:17.956Z,13.92
2019-05-07T18:27:56.036Z,13.75
2019-05-07T18:30:27.910Z,13.66
2019-05-07T18:33:02.426Z,13.60
2019-05-07T18:35:29.789Z,13.51
2019-05-07T18:37:58.655Z,13.36
2019-05-07T18:40:27.457Z,13.19
2019-05-07T18:42:56.782Z,13.01
2019-05-07T18:45:25.582Z,12.83
2019-05-07T18:47:54.434Z,12.69
2019-05-07T18:50:23.279Z,12.58
2019-05-07T18:52:52.975Z,12.45
2019-05-07T18:55:22.633Z,12.32
2019-05-07T18:57:51.767Z,12.23
2019-05-07T19:00:24.194Z,12.14
2019-05-07T19:02:53.067Z,12.04
2019-05-07T19:05:22.308Z,11.99
2019-05-07T19:08:02.368Z,11.91
2019-05-07T19:10:21.984Z,11.86
2019-05-07T19:12:48.971Z,11.80
2019-05-07T19:15:17.809Z,11.73
2019-05-07T19:17:46.742Z,11.65
2019-05-07T19:20:15.578Z,11.60
2019-05-07T19:22:44.997Z,11.54
2019-05-07T19:25:13.831Z,11.46
2019-05-07T19:27:42.671Z,11.41
2019-05-07T19:30:12.520Z,11.36
2019-05-07T19:32:42.693Z,11.27
2019-05-07T19:35:09.247Z,11.21
2019-05-07T19:37:38.102Z,11.14
2019-05-07T19:40:06.892Z,11.05
2019-05-07T19:42:35.717Z,10.98
2019-05-07T19:45:04.559Z,10.91
2019-05-07T19:47:33.463Z,10.85
2019-05-07T19:50:02.294Z,10.80
2019-05-07T19:52:33.010Z,10.74
2019-05-07T19:55:04.172Z,10.71
2019-05-07T19:57:33.136Z,10.69
2019-05-07T20:00:00.811Z,10.63
2019-05-07T20:02:33.336Z,10.62
2019-05-07T20:05:03.540Z,10.63
2019-05-07T20:07:31.863Z,10.66
2019-05-07T20:10:02.663Z,10.67
2019-05-07T20:12:32.300Z,10.66
2019-05-07T20:15:02.785Z,10.64
2019-05-07T20:17:31.380Z,10.66
2019-05-07T20:19:59.151Z,10.67
2019-05-07T20:22:27.974Z,10.64
2019-05-07T20:24:56.803Z,10.63
2019-05-07T20:27:25.605Z,10.62
2019-05-07T20:29:54.500Z,10.60
2019-05-07T20:32:23.347Z,10.57
2019-05-07T20:34:52.188Z,10.52
2019-05-07T20:37:22.000Z,10.50
2019-05-07T20:39:52.359Z,10.46
2019-05-07T20:42:19.323Z,10.42
2019-05-07T20:44:48.199Z,10.38
2019-05-07T20:47:17.288Z,10.34
2019-05-07T20:49:46.113Z,10.29
2019-05-07T20:52:14.920Z,10.22
2019-05-07T20:54:48.926Z,10.17
2019-05-07T20:57:24.120Z,10.12
2019-05-07T20:59:53.035Z,10.07
2019-05-07T21:02:22.717Z,10.01
2019-05-07T21:04:51.908Z,9.97
2019-05-07T21:07:19.492Z,9.94
2019-05-07T21:09:48.855Z,9.93
2019-05-07T21:12:17.690Z,9.92
2019-05-07T21:14:47.700Z,9.93
2019-05-07T21:17:16.596Z,9.91
2019-05-07T21:19:46.240Z,9.87
2019-05-07T21:22:15.085Z,9.82
2019-05-07T21:24:46.730Z,9.74
2019-05-07T21:27:12.959Z,9.65
2019-05-07T21:29:42.339Z,9.61
2019-05-07T21:32:12.405Z,9.54
2019-05-07T21:34:39.428Z,9.48
2019-05-07T21:37:08.645Z,9.44
2019-05-07T21:39:38.806Z,9.40
2019-05-07T21:42:07.593Z,9.35
2019-05-07T21:44:36.456Z,9.34
2019-05-07T21:47:05.252Z,9.32
2019-05-07T21:49:34.110Z,9.30
2019-05-07T21:52:02.917Z,9.31
2019-05-07T21:54:37.868Z,9.31
2019-05-07T21:57:12.886Z,9.31
2019-05-07T21:59:43.184Z,9.30
2019-05-07T22:02:14.570Z,9.26
2019-05-07T22:04:43.479Z,9.24
2019-05-07T22:07:12.354Z,9.22
2019-05-07T22:09:41.098Z,9.17
2019-05-07T22:12:11.983Z,9.10
2019-05-07T22:14:38.739Z,9.04
2019-05-07T22:17:07.636Z,8.98
2019-05-07T22:19:36.439Z,8.94
2019-05-07T22:22:05.334Z,8.88
2019-05-07T22:24:34.213Z,8.82
2019-05-07T22:27:04.225Z,8.74
2019-05-07T22:29:31.821Z,8.67
2019-05-07T22:32:04.855Z,8.62
2019-05-07T22:34:39.192Z,8.56
2019-05-07T22:37:08.077Z,8.52
2019-05-07T22:39:37.671Z,8.47
2019-05-07T22:42:07.218Z,8.45
2019-05-07T22:44:36.016Z,8.38
2019-05-07T22:47:08.984Z,8.36
2019-05-07T22:49:37.780Z,8.32
2019-05-07T22:52:06.579Z,8.29
2019-05-07T22:54:35.370Z,8.26
2019-05-07T22:57:09.086Z,8.22
2019-05-07T22:59:37.910Z,8.20
2019-05-07T23:02:12.188Z,8.18
2019-05-07T23:04:43.158Z,8.16
2019-05-07T23:07:12.766Z,8.13
2019-05-07T23:09:39.738Z,8.12
2019-05-07T23:12:08.627Z,8.10
2019-05-07T23:14:37.464Z,8.07
2019-05-07T23:17:07.360Z,8.05
2019-05-07T23:19:36.214Z,8.04
2019-05-07T23:22:05.053Z,8.02
2019-05-07T23:24:34.494Z,8.00
2019-05-07T23:27:03.302Z,7.99
2019-05-07T23:29:33.058Z,7.94
2019-05-07T23:32:02.070Z,7.93
2019-05-07T23:34:32.436Z,7.92
2019-05-07T23:36:59.311Z,7.91
2019-05-07T23:39:28.652Z,7.91
2019-05-07T23:42:02.287Z,7.91
2019-05-07T23:44:29.992Z,7.93
2019-05-07T23:46:58.807Z,7.92
2019-05-07T23:49:28.776Z,7.93
2019-05-07T23:51:57.566Z,7.95
2019-05-07T23:54:26.371Z,7.93
2019-05-07T23:57:05.835Z,7.93
2019-05-07T23:59:23.975Z,7.90
